Time;durP1;ratioP1;P1;durP2;ratioP2;P2;SDS_P1;SDS_P2;PMS_P1;PMS_P2;Temp;Humidity;BMP_temperature;BMP_pressure;BME280_temperature;BME280_humidity;BME280_pressure;Samples;Min_cycle;Max_cycle;Signal;HPM_P1;HPM_P2
2022/04/14 00:00:13;;;;;;;50.83;26.10;;;;;;;14.29;100.00;100987.94;8294462;28;20041;-65
2022/04/14 00:04:13;;;;;;;47.38;26.27;;;;;;;14.23;100.00;100988.53;8261188;28;20403;-65
2022/04/14 00:08:13;;;;;;;52.55;28.10;;;;;;;14.34;100.00;100988.34;8260337;28;20068;-65
2022/04/14 00:12:14;;;;;;;54.00;27.73;;;;;;;14.47;100.00;100980.66;8267537;28;20038;-65
2022/04/14 00:16:14;;;;;;;55.55;29.63;;;;;;;14.52;100.00;100983.75;8291468;28;20038;-64
2022/04/14 00:20:15;;;;;;;53.42;28.40;;;;;;;14.51;100.00;100979.31;8279571;28;20088;-64
2022/04/14 00:24:15;;;;;;;54.83;30.05;;;;;;;14.53;100.00;100965.56;8260476;28;20517;-64
2022/04/14 00:28:16;;;;;;;51.13;27.90;;;;;;;14.47;100.00;100975.22;8260414;28;20477;-64
2022/04/14 00:32:16;;;;;;;50.87;26.80;;;;;;;14.44;100.00;100983.69;8264963;28;20042;-64
2022/04/14 00:36:17;;;;;;;53.60;26.58;;;;;;;14.41;100.00;100978.53;8260492;28;20412;-64
2022/04/14 00:40:17;;;;;;;46.28;26.27;;;;;;;14.39;100.00;100977.84;8265393;28;20061;-64
2022/04/14 00:44:17;;;;;;;53.23;27.67;;;;;;;14.37;100.00;100974.44;8263250;28;20414;-64
2022/04/14 00:48:18;;;;;;;51.42;27.38;;;;;;;14.32;100.00;100967.72;8260135;28;20277;-64
2022/04/14 00:52:22;;;;;;;52.40;27.08;;;;;;;14.30;100.00;100972.47;8261733;28;20406;-64
2022/04/14 00:56:22;;;;;;;55.92;28.58;;;;;;;14.27;100.00;100962.75;8259284;28;20070;-64
2022/04/14 01:00:23;;;;;;;59.47;29.65;;;;;;;14.31;100.00;100969.59;8272547;28;20104;-64
2022/04/14 01:04:25;;;;;;;58.00;29.88;;;;;;;14.26;100.00;100976.50;8259106;28;20498;-64
2022/04/14 01:08:28;;;;;;;53.85;29.35;;;;;;;14.19;100.00;100967.19;8258881;28;20073;-64
2022/04/14 01:12:30;;;;;;;58.90;30.23;;;;;;;14.10;100.00;100974.41;8267138;28;20116;-64
2022/04/14 01:16:31;;;;;;;66.13;31.98;;;;;;;13.88;100.00;100973.97;8289624;28;20049;-64
2022/04/14 01:20:31;;;;;;;61.42;32.13;;;;;;;13.76;100.00;100971.44;8277558;28;20518;-64
2022/04/14 01:24:32;;;;;;;60.35;31.67;;;;;;;13.72;100.00;100980.03;8263185;28;20157;-64
2022/04/14 01:28:32;;;;;;;60.88;32.15;;;;;;;13.63;100.00;100989.06;8260149;28;20034;-64
2022/04/14 01:32:32;;;;;;;67.45;33.42;;;;;;;13.54;100.00;100984.53;8273734;28;20134;-64
2022/04/14 01:36:33;;;;;;;70.35;35.17;;;;;;;13.66;100.00;100991.50;8270661;28;20058;-64
2022/04/14 01:40:33;;;;;;;67.45;35.88;;;;;;;13.75;100.00;100994.19;8258753;28;20049;-64
2022/04/14 01:44:34;;;;;;;66.43;34.47;;;;;;;13.79;100.00;100987.44;8257180;28;20117;-64
2022/04/14 01:48:35;;;;;;;65.45;34.78;;;;;;;13.76;100.00;100990.44;8289830;28;20049;-65
2022/04/14 01:52:36;;;;;;;66.05;34.53;;;;;;;13.75;100.00;100994.19;8286698;28;20049;-64
2022/04/14 01:56:36;;;;;;;69.68;35.63;;;;;;;13.65;100.00;100997.94;8257924;28;20675;-64
2022/04/14 02:00:37;;;;;;;73.05;35.88;;;;;;;13.71;100.00;100997.34;8258854;28;20409;-64
2022/04/14 02:04:37;;;;;;;64.18;34.65;;;;;;;13.65;100.00;100998.81;8257872;28;20447;-64
2022/04/14 02:08:38;;;;;;;69.25;35.15;;;;;;;13.55;100.00;101002.56;8258544;28;20040;-64
2022/04/14 02:12:39;;;;;;;77.55;37.17;;;;;;;13.55;100.00;100992.53;8300156;28;20030;-64
2022/04/14 02:16:39;;;;;;;85.13;41.47;;;;;;;13.59;100.00;100993.09;8285909;28;20037;-64
2022/04/14 02:20:40;;;;;;;80.73;40.20;;;;;;;13.55;100.00;100989.81;8263453;28;20065;-64
2022/04/14 02:24:40;;;;;;;89.07;40.63;;;;;;;13.58;100.00;100988.69;8260182;28;21010;-64
2022/04/14 02:28:40;;;;;;;88.47;42.22;;;;;;;13.49;100.00;100970.56;8257478;28;20266;-64
2022/04/14 02:32:41;;;;;;;87.53;41.87;;;;;;;13.48;100.00;100961.53;8266006;28;20031;-64
2022/04/14 02:36:41;;;;;;;87.27;41.10;;;;;;;13.33;100.00;100963.00;8294437;28;20293;-64
2022/04/14 02:40:42;;;;;;;86.50;39.90;;;;;;;13.31;100.00;100956.03;8261650;28;20381;-64
2022/04/14 02:44:42;;;;;;;86.35;39.35;;;;;;;13.33;100.00;100951.31;8261619;28;20058;-64
2022/04/14 02:48:42;;;;;;;82.65;39.22;;;;;;;13.28;100.00;100950.88;8262034;28;20045;-64
2022/04/14 02:52:43;;;;;;;83.72;38.97;;;;;;;13.19;100.00;100951.78;8302413;28;20038;-64
2022/04/14 02:56:43;;;;;;;85.32;38.95;;;;;;;13.16;100.00;100952.06;8308854;28;20052;-64
2022/04/14 03:00:44;;;;;;;84.13;38.15;;;;;;;13.10;100.00;100949.94;8313601;28;20045;-64
2022/04/14 03:04:44;;;;;;;87.80;40.50;;;;;;;13.36;100.00;100959.16;8276667;28;20042;-64
2022/04/14 03:08:44;;;;;;;88.47;39.33;;;;;;;13.38;100.00;100962.56;8265050;28;20506;-64
2022/04/14 03:12:46;;;;;;;91.50;40.53;;;;;;;13.44;100.00;100964.69;8274086;28;20281;-64
2022/04/14 03:16:47;;;;;;;92.32;39.60;;;;;;;13.51;100.00;100963.13;8291422;28;20281;-64
2022/04/14 03:20:47;;;;;;;94.72;40.85;;;;;;;13.36;100.00;100961.88;8278395;28;20042;-64
2022/04/14 03:24:47;;;;;;;104.63;43.03;;;;;;;13.39;100.00;100958.88;8262964;28;20066;-64
2022/04/14 03:28:48;;;;;;;113.82;46.67;;;;;;;13.32;100.00;100969.47;8261983;28;20576;-64
2022/04/14 03:32:48;;;;;;;104.43;45.15;;;;;;;13.29;100.00;100963.44;8270932;28;20042;-64
2022/04/14 03:36:49;;;;;;;112.70;46.92;;;;;;;13.31;100.00;100969.59;8261011;28;20027;-64
2022/04/14 03:40:49;;;;;;;104.97;45.85;;;;;;;13.32;100.00;100964.03;8261708;28;20089;-64
2022/04/14 03:44:49;;;;;;;100.13;42.75;;;;;;;13.13;100.00;100968.63;8261361;28;20109;-64
2022/04/14 03:48:50;;;;;;;103.68;44.70;;;;;;;13.07;100.00;100974.66;8262799;28;20110;-64
2022/04/14 03:52:50;;;;;;;109.50;46.50;;;;;;;13.12;100.00;100973.22;8274257;28;20035;-64
2022/04/14 03:56:51;;;;;;;101.40;43.58;;;;;;;13.09;100.00;100972.66;8230269;28;20039;-64
2022/04/14 04:00:51;;;;;;;107.25;44.45;;;;;;;13.01;100.00;100981.53;8237207;28;20065;-64
2022/04/14 04:04:51;;;;;;;109.32;46.30;;;;;;;13.23;100.00;100980.34;8246809;28;20062;-64
2022/04/14 04:08:52;;;;;;;108.80;46.00;;;;;;;13.14;100.00;100973.94;8255376;28;20038;-64
2022/04/14 04:12:52;;;;;;;114.10;46.03;;;;;;;13.27;100.00;100976.34;8283436;28;20282;-64
2022/04/14 04:16:53;;;;;;;112.07;48.60;;;;;;;13.28;100.00;100972.63;8260373;28;20050;-64
2022/04/14 04:20:53;;;;;;;105.95;46.97;;;;;;;13.22;100.00;100968.63;8268047;28;20088;-64
2022/04/14 04:24:53;;;;;;;99.03;44.17;;;;;;;13.39;100.00;100975.16;8260128;28;20566;-64
2022/04/14 04:28:54;;;;;;;100.40;45.65;;;;;;;13.41;100.00;100984.88;8258844;28;20046;-64
2022/04/14 04:32:54;;;;;;;92.75;42.78;;;;;;;13.30;100.00;100992.34;8270094;28;20065;-64
2022/04/14 04:36:55;;;;;;;99.82;41.97;;;;;;;13.11;100.00;101000.50;8259834;28;20462;-64
2022/04/14 04:40:58;;;;;;;89.47;41.03;;;;;;;12.99;100.00;100993.50;8260315;28;20041;-64
2022/04/14 04:44:59;;;;;;;94.63;40.87;;;;;;;12.83;100.00;100983.22;8260027;28;20085;-64
2022/04/14 04:48:59;;;;;;;93.40;40.65;;;;;;;13.06;100.00;101000.09;8266569;28;20503;-64
2022/04/14 04:53:00;;;;;;;91.38;39.55;;;;;;;13.04;100.00;101004.81;8275388;28;20042;-64
2022/04/14 04:57:00;;;;;;;82.53;37.47;;;;;;;13.05;100.00;101014.69;8290022;28;20104;-64
2022/04/14 05:01:00;;;;;;;85.18;38.78;;;;;;;13.17;100.00;101019.78;8277200;28;20395;-64
2022/04/14 05:05:01;;;;;;;91.37;40.43;;;;;;;13.02;100.00;101042.94;8259290;28;20398;-64
2022/04/14 05:09:01;;;;;;;91.97;40.38;;;;;;;12.85;100.00;101034.63;8259520;28;20337;-64
2022/04/14 05:13:02;;;;;;;91.50;40.28;;;;;;;12.86;100.00;101036.34;8264154;28;20049;-64
2022/04/14 05:17:02;;;;;;;79.35;36.17;;;;;;;12.85;100.00;101029.22;8259120;28;20038;-64
2022/04/14 05:21:03;;;;;;;91.57;37.35;;;;;;;12.88;100.00;101016.22;8262181;28;20038;-64
2022/04/14 05:25:04;;;;;;;88.03;38.00;;;;;;;13.08;100.00;101011.66;8259050;28;20481;-65
2022/04/14 05:29:04;;;;;;;81.10;36.03;;;;;;;13.10;100.00;101028.66;8275828;28;20042;-64
2022/04/14 05:33:10;;;;;;;85.80;39.17;;;;;;;13.13;100.00;101020.22;8269036;28;20388;-64
2022/04/14 05:37:10;;;;;;;74.82;34.88;;;;;;;13.09;100.00;101016.09;8262369;28;20041;-64
2022/04/14 05:41:11;;;;;;;84.55;39.50;;;;;;;13.13;100.00;101044.66;8263255;28;20045;-64
2022/04/14 05:45:13;;;;;;;82.22;36.58;;;;;;;12.98;100.00;101040.63;8260741;28;20064;-64
2022/04/14 05:49:15;;;;;;;83.90;36.80;;;;;;;12.95;100.00;101024.63;8270839;28;20064;-64
2022/04/14 05:53:16;;;;;;;92.03;38.42;;;;;;;12.93;100.00;101022.06;8254116;28;20069;-65
2022/04/14 05:57:17;;;;;;;94.63;38.60;;;;;;;13.05;100.00;101033.69;8257772;28;20050;-65
2022/04/14 06:01:17;;;;;;;93.80;38.88;;;;;;;13.25;100.00;101035.38;8263551;28;20039;-65
2022/04/14 06:05:18;;;;;;;88.70;38.70;;;;;;;13.25;100.00;101043.50;8262389;28;20418;-65
2022/04/14 06:09:19;;;;;;;94.35;40.35;;;;;;;13.31;100.00;101059.22;8271412;28;20079;-65
2022/04/14 06:13:19;;;;;;;92.13;39.15;;;;;;;13.30;100.00;101046.66;8269821;28;20069;-65
2022/04/14 06:17:20;;;;;;;96.87;39.47;;;;;;;13.23;100.00;101053.66;8271076;28;20034;-65
2022/04/14 06:21:20;;;;;;;93.85;39.80;;;;;;;13.30;100.00;101063.78;8265784;28;20328;-65
2022/04/14 06:25:22;;;;;;;95.80;41.20;;;;;;;13.53;100.00;101075.19;8263409;28;20060;-65
2022/04/14 06:29:23;;;;;;;102.15;41.13;;;;;;;13.64;100.00;101073.16;8270913;28;20379;-65
2022/04/14 06:33:23;;;;;;;90.93;41.85;;;;;;;13.79;100.00;101074.41;8273816;28;20092;-65
2022/04/14 06:37:24;;;;;;;95.28;40.17;;;;;;;14.04;100.00;101081.06;8265357;28;20462;-65
2022/04/14 06:41:26;;;;;;;79.85;37.17;;;;;;;14.09;100.00;101095.03;8256395;28;20463;-65
2022/04/14 06:45:26;;;;;;;74.93;34.85;;;;;;;14.19;100.00;101090.44;8265632;28;20034;-65
2022/04/14 06:49:27;;;;;;;70.22;32.00;;;;;;;14.29;100.00;101091.28;8270085;28;20045;-65
2022/04/14 06:53:27;;;;;;;74.38;34.08;;;;;;;14.27;100.00;101093.28;8275525;28;20105;-65
2022/04/14 06:57:28;;;;;;;71.55;32.38;;;;;;;14.33;100.00;101092.69;8263317;28;20053;-65
2022/04/14 07:01:28;;;;;;;60.00;28.10;;;;;;;14.31;100.00;101094.72;8272568;28;20244;-65
2022/04/14 07:05:29;;;;;;;56.38;28.55;;;;;;;14.40;100.00;101090.25;8266220;28;20049;-65
2022/04/14 07:09:32;;;;;;;52.15;27.05;;;;;;;14.55;100.00;101095.00;8269937;28;20042;-65
2022/04/14 07:13:32;;;;;;;48.33;25.88;;;;;;;14.75;100.00;101093.88;8260664;28;20388;-65
2022/04/14 07:17:34;;;;;;;53.30;27.10;;;;;;;14.73;100.00;101095.06;8268519;28;20310;-65
2022/04/14 07:21:34;;;;;;;58.05;26.98;;;;;;;14.92;100.00;101101.25;8261924;28;20282;-65
2022/04/14 07:25:34;;;;;;;47.30;25.52;;;;;;;15.02;100.00;101106.59;8256816;28;20038;-65
2022/04/14 07:29:35;;;;;;;51.58;25.00;;;;;;;15.17;100.00;101100.47;8271653;28;20461;-65
2022/04/14 07:33:36;;;;;;;48.95;24.67;;;;;;;15.16;100.00;101101.44;8268163;28;20054;-65
2022/04/14 07:37:37;;;;;;;47.30;23.70;;;;;;;15.42;100.00;101099.69;8263831;28;20525;-64
2022/04/14 07:41:37;;;;;;;39.05;21.92;;;;;;;15.55;100.00;101111.03;8280446;28;20273;-64
2022/04/14 07:45:39;;;;;;;46.20;22.48;;;;;;;16.03;98.38;101109.66;8271743;28;20104;-64
2022/04/14 07:49:40;;;;;;;32.78;17.08;;;;;;;16.31;93.01;101113.94;8269651;28;20121;-64
2022/04/14 07:53:40;;;;;;;32.15;17.15;;;;;;;16.66;90.89;101102.84;8275890;28;20042;-65
2022/04/14 07:57:41;;;;;;;30.08;15.57;;;;;;;16.88;88.32;101108.56;8271028;28;20037;-65
2022/04/14 08:01:41;;;;;;;25.02;13.93;;;;;;;17.00;85.94;101106.38;8273111;28;20100;-65
2022/04/14 08:05:45;;;;;;;20.88;12.52;;;;;;;17.40;85.09;101103.69;8258321;28;20042;-65
2022/04/14 08:09:45;;;;;;;22.73;12.80;;;;;;;17.37;82.42;101114.97;8268545;28;20049;-65
2022/04/14 08:13:46;;;;;;;20.83;12.75;;;;;;;17.42;83.21;101112.59;8264704;28;20416;-65
2022/04/14 08:17:46;;;;;;;24.52;14.05;;;;;;;17.69;83.95;101117.75;8260166;28;20329;-65
2022/04/14 08:21:48;;;;;;;19.63;10.52;;;;;;;17.70;82.53;101122.19;8259940;28;20455;-62
2022/04/14 08:25:48;;;;;;;15.25;10.55;;;;;;;17.75;78.00;101122.50;8260409;28;20038;-62
2022/04/14 08:29:49;;;;;;;16.35;9.85;;;;;;;17.65;76.66;101127.31;8264729;28;20038;-62
2022/04/14 08:33:50;;;;;;;22.48;12.35;;;;;;;17.82;76.89;101120.81;8263381;28;20046;-62
2022/04/14 08:37:50;;;;;;;32.97;17.52;;;;;;;18.15;75.79;101133.44;8275021;28;20045;-62
2022/04/14 08:42:04;;;;;;;40.05;16.38;;;;;;;18.46;78.29;101130.78;8276958;28;20494;-62
2022/04/14 08:46:06;;;;;;;39.42;19.48;;;;;;;18.44;76.20;101128.22;8267140;28;20562;-60
2022/04/14 08:50:11;;;;;;;37.92;19.38;;;;;;;18.86;75.42;101128.75;8255513;28;20061;-61
2022/04/14 08:54:13;;;;;;;36.95;18.90;;;;;;;18.18;75.36;101126.75;8249625;28;20038;-59
2022/04/14 08:58:16;;;;;;;33.70;19.75;;;;;;;18.74;76.96;101135.66;8259883;28;20042;-65
2022/04/14 09:02:19;;;;;;;29.30;17.42;;;;;;;19.11;74.28;101133.06;8248484;28;20057;-66
2022/04/14 09:06:20;;;;;;;33.70;17.87;;;;;;;19.78;72.26;101136.00;8254097;28;20093;-66
2022/04/14 09:10:21;;;;;;;33.40;19.27;;;;;;;19.81;72.76;101132.88;8257990;28;20810;-66
2022/04/14 09:14:22;;;;;;;35.00;20.13;;;;;;;19.41;70.39;101136.81;8253452;28;20347;-66
2022/04/14 09:18:22;;;;;;;30.48;17.30;;;;;;;19.76;70.27;101132.59;8253740;28;20052;-66
2022/04/14 09:22:23;;;;;;;31.02;19.08;;;;;;;19.85;71.99;101131.50;8266863;28;20137;-66
2022/04/14 09:26:32;;;;;;;31.95;18.50;;;;;;;19.69;69.71;101131.63;8261975;28;20054;-66
2022/04/14 09:30:32;;;;;;;33.25;18.70;;;;;;;19.56;70.45;101131.38;8267789;28;20057;-66
2022/04/14 09:34:50;;;;;;;31.27;17.83;;;;;;;19.73;68.95;101116.50;8257374;28;20033;-66
2022/04/14 09:39:00;;;;;;;33.17;17.42;;;;;;;20.88;69.25;101120.38;8252627;28;20048;-67
2022/04/14 09:43:01;;;;;;;29.40;16.38;;;;;;;23.14;62.23;101118.88;8262240;28;20068;-66
2022/04/14 09:47:01;;;;;;;29.83;16.08;;;;;;;24.28;57.33;101118.63;8271291;28;20045;-66
2022/04/14 09:51:01;;;;;;;26.98;16.67;;;;;;;25.93;54.97;101122.16;8262114;28;20042;-66
2022/04/14 09:55:09;;;;;;;29.07;17.13;;;;;;;26.61;54.52;101114.66;8281878;28;20136;-66
2022/04/14 09:59:12;;;;;;;23.80;16.15;;;;;;;26.19;53.07;101110.84;8275127;28;20623;-66
2022/04/14 10:07:25;;;;;;;24.30;15.15;;;;;;;27.01;52.30;101109.53;8274257;28;20383;-66
2022/04/14 10:11:29;;;;;;;24.85;15.57;;;;;;;27.39;50.07;101108.19;8281417;28;20045;-67
2022/04/14 10:15:31;;;;;;;21.33;14.65;;;;;;;28.04;48.74;101101.59;8293450;28;20116;-66
2022/04/14 10:19:33;;;;;;;22.95;15.90;;;;;;;28.60;48.91;101095.41;8284716;28;20056;-67
2022/04/14 10:23:35;;;;;;;22.77;14.20;;;;;;;28.67;46.93;101096.16;8296360;28;20092;-69
2022/04/14 10:27:36;;;;;;;16.33;12.88;;;;;;;29.24;47.07;101089.59;8287802;28;20081;-66
2022/04/14 10:31:38;;;;;;;22.60;14.98;;;;;;;29.30;46.16;101074.66;8285228;28;20033;-66
2022/04/14 10:35:38;;;;;;;17.67;12.15;;;;;;;28.86;46.05;101078.19;8302522;28;20654;-66
2022/04/14 10:39:45;;;;;;;21.95;13.00;;;;;;;28.43;46.91;101080.53;8297120;28;20052;-66
2022/04/14 10:43:46;;;;;;;18.42;13.60;;;;;;;27.48;46.35;101083.69;8304083;28;20091;-66
2022/04/14 10:47:54;;;;;;;16.58;10.65;;;;;;;27.12;47.96;101079.06;8291701;28;20413;-66
2022/04/14 10:51:56;;;;;;;17.17;11.82;;;;;;;27.53;49.39;101075.50;8297046;28;20582;-66
2022/04/14 10:55:57;;;;;;;19.63;10.88;;;;;;;28.08;46.43;101068.56;8296228;28;20048;-66
2022/04/14 10:59:57;;;;;;;18.42;10.70;;;;;;;27.77;47.51;101060.53;8299696;28;20565;-66
2022/04/14 11:03:57;;;;;;;19.35;12.20;;;;;;;29.01;45.60;101072.94;8295466;28;20498;-66
2022/04/14 11:16:52;;;;;;;15.85;8.15;;;;;;;30.16;43.51;101044.41;8326711;27;20957;-67
2022/04/14 11:20:54;;;;;;;17.52;9.57;;;;;;;30.14;44.53;101041.03;8298271;28;20093;-68
2022/04/14 11:24:55;;;;;;;13.90;8.93;;;;;;;29.48;44.21;101043.78;8289108;28;20053;-66
2022/04/14 11:28:57;;;;;;;13.50;8.60;;;;;;;29.55;44.46;101049.22;8297777;28;20048;-66
2022/04/14 11:33:12;;;;;;;16.85;10.63;;;;;;;29.74;44.16;101051.53;8287843;28;20053;-67
2022/04/14 11:37:38;;;;;;;16.63;10.90;;;;;;;28.93;44.58;101058.56;8285328;28;20073;-66
2022/04/14 11:41:45;;;;;;;34.05;11.52;;;;;;;28.46;45.40;101057.84;8287466;28;20057;-67
2022/04/14 11:45:45;;;;;;;17.38;10.68;;;;;;;28.51;45.98;101060.72;8283474;28;20337;-67
2022/04/14 11:49:46;;;;;;;17.00;8.55;;;;;;;26.39;47.66;101058.81;8296092;28;20049;-66
2022/04/14 11:53:47;;;;;;;18.75;9.82;;;;;;;23.01;52.02;101058.16;8290632;28;20037;-67
2022/04/14 11:57:47;;;;;;;15.50;10.43;;;;;;;22.09;55.27;101067.88;8288033;28;20054;-66
2022/04/14 12:01:49;;;;;;;13.93;9.43;;;;;;;21.89;59.76;101071.53;8294899;28;20124;-62
2022/04/14 12:05:50;;;;;;;20.40;12.10;;;;;;;21.83;58.44;101064.06;8294276;28;20049;-62
2022/04/14 12:10:08;;;;;;;15.38;9.25;;;;;;;22.70;58.19;101075.25;8294315;28;20038;-63
2022/04/14 12:14:08;;;;;;;16.88;9.93;;;;;;;22.71;54.91;101074.19;8289562;28;20521;-66
2022/04/14 12:18:11;;;;;;;15.17;11.00;;;;;;;23.27;54.08;101057.41;8292185;28;20715;-66
2022/04/14 12:22:13;;;;;;;19.40;12.27;;;;;;;23.40;55.13;101057.41;8283252;28;20360;-66
2022/04/14 12:26:14;;;;;;;22.30;12.98;;;;;;;23.60;54.98;101047.25;8269697;28;20054;-66
2022/04/14 12:30:14;;;;;;;21.45;13.20;;;;;;;22.65;54.83;101052.09;8269131;28;20104;-66
2022/04/14 12:34:15;;;;;;;21.42;10.77;;;;;;;22.72;55.24;101051.06;8263363;28;20041;-66
2022/04/14 12:38:21;;;;;;;17.13;11.50;;;;;;;22.65;57.12;101047.44;8263560;28;20445;-66
2022/04/14 12:42:32;;;;;;;18.70;11.68;;;;;;;22.05;56.48;101052.78;8259098;28;20129;-66
2022/04/14 12:46:38;;;;;;;21.15;13.70;;;;;;;22.40;60.91;101053.63;8262461;28;20041;-66
2022/04/14 12:50:38;;;;;;;22.50;14.20;;;;;;;23.01;57.17;101042.47;8264660;28;20038;-66
2022/04/14 12:54:46;;;;;;;25.55;17.48;;;;;;;22.07;58.89;101042.41;8265119;28;20030;-66
2022/04/14 12:59:09;;;;;;;21.05;13.15;;;;;;;22.45;60.40;101046.44;8232941;28;20150;-66
2022/04/14 13:03:19;;;;;;;24.05;15.65;;;;;;;22.26;58.81;101047.19;8254979;28;20437;-66
2022/04/14 13:07:20;;;;;;;21.95;14.13;;;;;;;21.99;60.12;101042.56;8267148;28;20116;-66
2022/04/14 13:11:41;;;;;;;28.38;15.27;;;;;;;22.40;60.93;101039.84;8272700;28;20041;-61
2022/04/14 13:15:42;;;;;;;26.10;16.00;;;;;;;22.18;60.79;101050.13;8270030;28;20057;-66
2022/04/14 13:19:42;;;;;;;20.30;11.60;;;;;;;22.33;58.12;101042.59;8276477;28;20054;-68
2022/04/14 13:23:43;;;;;;;17.17;11.77;;;;;;;22.69;57.77;101037.69;8270903;28;20042;-66
2022/04/14 13:27:43;;;;;;;17.45;10.65;;;;;;;22.63;56.22;101033.00;8276541;28;20517;-62
2022/04/14 13:31:44;;;;;;;16.83;9.90;;;;;;;22.33;56.79;101045.34;8276997;28;20552;-62
2022/04/14 13:35:44;;;;;;;15.48;9.40;;;;;;;22.17;57.68;101048.41;8274341;28;20057;-62
2022/04/14 13:39:46;;;;;;;16.67;8.50;;;;;;;21.88;58.88;101043.16;8270153;28;20046;-61
2022/04/14 13:43:46;;;;;;;14.32;6.63;;;;;;;22.16;57.93;101043.09;8265902;28;20042;-61
2022/04/14 13:47:47;;;;;;;13.65;7.30;;;;;;;21.99;58.73;101039.81;8260945;28;20601;-61
2022/04/14 13:51:48;;;;;;;9.38;6.20;;;;;;;21.72;56.45;101026.91;8265308;28;20513;-61
2022/04/14 13:55:49;;;;;;;13.30;5.88;;;;;;;21.40;58.10;101043.97;8272061;28;20048;-61
2022/04/14 13:59:50;;;;;;;22.77;13.60;;;;;;;20.88;61.91;101047.00;8268780;28;20041;-61
2022/04/14 14:03:52;;;;;;;21.50;13.87;;;;;;;20.40;63.14;101046.84;8268618;28;20052;-63
2022/04/14 14:07:53;;;;;;;17.15;11.10;;;;;;;20.85;63.80;101043.78;8261131;28;20836;-63
2022/04/14 14:11:53;;;;;;;15.25;11.07;;;;;;;21.20;63.28;101031.94;8271358;28;20534;-63
2022/04/14 14:15:54;;;;;;;16.85;11.60;;;;;;;21.51;61.16;101029.69;8266109;28;20045;-62
2022/04/14 14:19:54;;;;;;;16.08;11.80;;;;;;;21.15;61.05;101034.41;8270748;28;20604;-62
2022/04/14 14:23:55;;;;;;;21.75;14.13;;;;;;;20.65;61.73;101038.06;8258394;28;20069;-61
2022/04/14 14:27:55;;;;;;;23.42;13.82;;;;;;;20.53;63.19;101038.75;8260441;28;20530;-63
2022/04/14 14:31:56;;;;;;;20.08;12.73;;;;;;;20.63;62.81;101044.78;8259208;28;20042;-63
2022/04/14 14:35:56;;;;;;;20.15;13.05;;;;;;;20.77;64.39;101047.50;8272482;28;20562;-64
2022/04/14 14:39:56;;;;;;;20.63;14.48;;;;;;;20.67;65.12;101054.34;8265829;28;20054;-61
2022/04/14 14:43:58;;;;;;;21.58;15.90;;;;;;;20.25;65.27;101056.97;8263157;28;20038;-65
2022/04/14 14:47:59;;;;;;;16.48;13.23;;;;;;;20.41;63.31;101056.78;8261400;28;20100;-65
2022/04/14 14:52:03;;;;;;;16.88;11.55;;;;;;;20.59;61.92;101054.47;8268710;28;20045;-65
2022/04/14 14:56:03;;;;;;;15.37;10.83;;;;;;;20.89;61.84;101042.38;8267395;28;20507;-65
2022/04/14 15:00:06;;;;;;;19.80;13.23;;;;;;;20.80;63.48;101049.88;8260671;28;20424;-65
2022/04/14 15:04:06;;;;;;;17.45;12.38;;;;;;;20.67;62.61;101051.59;8260110;28;20049;-65
2022/04/14 15:08:06;;;;;;;14.77;11.02;;;;;;;20.65;62.43;101059.19;8270609;28;20055;-65
2022/04/14 15:12:08;;;;;;;15.13;12.13;;;;;;;20.77;63.94;101057.66;8260157;28;20128;-65
2022/04/14 15:16:08;;;;;;;17.70;11.30;;;;;;;20.85;62.47;101057.53;8255811;28;20050;-65
2022/04/14 15:20:09;;;;;;;14.02;9.65;;;;;;;20.93;62.53;101062.94;8263078;28;20483;-65
2022/04/14 15:24:10;;;;;;;14.00;9.25;;;;;;;20.74;61.55;101058.06;8265107;28;20046;-65
2022/04/14 15:28:10;;;;;;;12.75;7.05;;;;;;;20.53;59.89;101049.75;8266344;28;20046;-65
2022/04/14 15:32:11;;;;;;;8.85;6.60;;;;;;;20.45;62.60;101055.34;8266379;28;20053;-66
2022/04/14 15:36:12;;;;;;;5.68;4.15;;;;;;;20.29;59.13;101048.16;8264844;28;20045;-65
2022/04/14 15:40:13;;;;;;;8.50;3.65;;;;;;;20.19;58.21;101049.50;8261896;28;20576;-65
2022/04/14 15:44:13;;;;;;;4.47;3.92;;;;;;;20.12;58.56;101043.00;8255492;28;20466;-65
2022/04/14 15:48:14;;;;;;;8.27;4.45;;;;;;;20.02;60.05;101050.66;8262498;28;20485;-65
2022/04/14 15:52:16;;;;;;;6.32;4.63;;;;;;;20.11;60.30;101057.78;8252887;28;20542;-65
2022/04/14 15:56:19;;;;;;;5.18;3.53;;;;;;;20.24;60.81;101064.34;8255792;28;20049;-65
2022/04/14 16:00:20;;;;;;;4.57;4.15;;;;;;;20.19;60.52;101063.22;8252336;28;20046;-65
2022/04/14 16:04:20;;;;;;;6.88;4.57;;;;;;;20.13;59.67;101059.31;8259053;28;20038;-65
2022/04/14 16:08:22;;;;;;;5.53;4.22;;;;;;;20.23;61.37;101059.06;8257847;28;20491;-65
2022/04/14 16:12:23;;;;;;;9.90;4.38;;;;;;;20.16;62.58;101050.72;8267410;28;20034;-65
2022/04/14 16:16:24;;;;;;;8.30;4.13;;;;;;;20.22;60.26;101062.84;8266975;28;20046;-65
2022/04/14 16:20:25;;;;;;;7.53;3.75;;;;;;;20.21;59.95;101058.38;8267930;28;20041;-65
2022/04/14 16:24:25;;;;;;;6.05;3.78;;;;;;;20.16;62.71;101058.94;8263843;28;21017;-65
2022/04/14 16:28:26;;;;;;;6.53;3.83;;;;;;;19.98;62.26;101054.84;8263636;28;20414;-65
2022/04/14 16:32:27;;;;;;;4.72;4.10;;;;;;;19.73;62.12;101062.47;8254526;28;20034;-65
2022/04/14 16:36:27;;;;;;;6.63;3.92;;;;;;;19.59;63.63;101062.44;8259194;28;20104;-65
2022/04/14 16:40:29;;;;;;;5.45;4.18;;;;;;;19.38;65.48;101064.00;8263612;28;20192;-65
2022/04/14 16:44:29;;;;;;;5.32;3.05;;;;;;;19.36;64.65;101063.31;8266896;28;20063;-65
2022/04/14 16:48:30;;;;;;;12.05;3.67;;;;;;;19.38;65.05;101074.97;8271668;28;20109;-65
2022/04/14 16:52:30;;;;;;;10.00;2.80;;;;;;;19.36;64.26;101084.41;8250951;28;20050;-65
2022/04/14 16:56:34;;;;;;;4.38;2.00;;;;;;;19.19;62.55;101082.81;8262046;28;20130;-65
2022/04/14 17:00:35;;;;;;;5.43;1.90;;;;;;;19.24;61.55;101081.22;8254024;28;20498;-65
2022/04/14 17:04:37;;;;;;;4.43;2.30;;;;;;;19.26;61.28;101084.66;8263654;28;20041;-65
2022/04/14 17:08:37;;;;;;;11.02;3.38;;;;;;;19.16;62.31;101089.47;8279304;28;20052;-65
2022/04/14 17:12:38;;;;;;;6.75;2.10;;;;;;;19.00;64.31;101097.81;8262553;28;20594;-65
2022/04/14 17:16:38;;;;;;;5.43;2.92;;;;;;;18.87;65.07;101097.56;8260656;28;20272;-65
2022/04/14 17:20:39;;;;;;;4.32;3.03;;;;;;;18.75;65.28;101099.00;8270156;28;20045;-65
2022/04/14 17:24:40;;;;;;;8.23;3.33;;;;;;;18.75;66.00;101099.00;8267114;28;20061;-65
2022/04/14 17:28:40;;;;;;;5.70;3.47;;;;;;;18.69;65.63;101094.22;8250161;28;20722;-65
2022/04/14 17:32:41;;;;;;;9.35;4.07;;;;;;;18.59;66.34;101106.44;8267466;28;20448;-65
2022/04/14 17:36:42;;;;;;;9.38;4.05;;;;;;;18.54;67.54;101100.66;8263975;28;20262;-65
2022/04/14 17:40:43;;;;;;;6.32;4.05;;;;;;;18.45;66.86;101108.03;8272358;28;20149;-65
2022/04/14 17:44:44;;;;;;;8.18;4.72;;;;;;;18.24;68.57;101094.03;8262382;28;20053;-65
2022/04/14 17:48:44;;;;;;;9.50;4.72;;;;;;;18.13;68.86;101097.16;8260707;28;20491;-65
2022/04/14 17:52:45;;;;;;;11.70;5.10;;;;;;;17.97;69.66;101108.16;8256537;28;20261;-65
2022/04/14 17:56:45;;;;;;;12.15;5.88;;;;;;;17.87;69.75;101103.88;8267396;28;20300;-65
2022/04/14 18:00:46;;;;;;;10.93;5.85;;;;;;;17.94;69.25;101103.03;8252619;28;20321;-65
2022/04/14 18:04:46;;;;;;;14.63;6.25;;;;;;;17.83;69.83;101108.84;8252033;28;20797;-65
2022/04/14 18:08:47;;;;;;;12.33;6.90;;;;;;;17.67;70.42;101111.59;8246830;28;20034;-65
2022/04/14 18:12:47;;;;;;;15.50;6.28;;;;;;;17.57;71.38;101108.19;8260787;28;20301;-65
2022/04/14 18:16:50;;;;;;;18.63;7.05;;;;;;;17.56;71.45;101112.78;8248264;28;20542;-65
2022/04/14 18:20:51;;;;;;;17.45;6.75;;;;;;;17.46;72.06;101108.50;8254433;28;20129;-65
2022/04/14 18:24:51;;;;;;;19.20;7.60;;;;;;;17.42;71.97;101098.91;8260822;28;20072;-65
2022/04/14 18:28:52;;;;;;;18.70;7.88;;;;;;;17.35;72.88;101117.88;8260058;28;20407;-65